Portada
METAR-TAF:

METAR-TAF

Aeroports :

Rutland Southern Vermont Regional Airport

Rutland, Vermont, Estats Units d'Amèrica

latitud: 43-32N, longitud: 072-57W, altitud: 240 m

Observació

L'informe es va fer fa 13 minuts, a les 10:41 UTC
Vent 3 kt amb direcció variable
Temperatura 19°C
Humitat 94%
Pressió 1013 hPa
Visibilitat: 16.1 km
Cel cobert a una alçada de 1300 ft

METAR: KRUT 191041Z AUTO VRB03KT 10SM OVC013 19/18 A2990 RMK AO2 $

Hora: 06:54 (10:54 UTC)

Pronòstic

L'informe es va fer fa 2 hores i 2 minuts, a les 08:52 UTC
Pronòstic vàlid del 19 a les 09 UTC al 20 a les 06 UTC
Vent 6 kt del Sud/Sud-Est
Visibilitat: 10 km
Cel cobert a una alçada de 2000 ft
A partir de les 19 a les 1600 UTC
Vent 8 kt del Sud-Oest
Visibilitat: 10 km
Núvols disperses a una alçada de 25000 ft

TAF: KRUT 190852Z 1909/2006 16006KT P6SM OVC020 FM191600 23008KT P6SM SCT250

Observacions i pronòstics meteorològics de més de 4000 aeroports (METAR i TAF).

Les estacions disponibles són els punts grocs i vermells al mapa.

Posi el ratolí al punt desitjat per veure el nom de l'estació.

Feu clic per veure les observacions i els pronòstics meteorològics.

Per canviar el mapa: feu clic els botons verds amb una creu de color negre per apropar; al botó verd amb un guió per allunyar la imatge; o en les fletxes verdes per a mapes adjacents.


METAR-TAF: